Time;durP1;ratioP1;P1;durP2;ratioP2;P2;SDS_P1;SDS_P2;PMS_P1;PMS_P2;Temp;Humidity;BMP_temperature;BMP_pressure;BME280_temperature;BME280_humidity;BME280_pressure;Samples;Min_cycle;Max_cycle;Signal;HPM_P1;HPM_P2
2022/08/16 00:01:06;;;;;;;18.60;13.60;;;;;;;;;;8242399;28;20058;-90
2022/08/16 00:05:12;;;;;;;17.90;12.85;;;;;;;;;;8238954;28;20058;-87
2022/08/16 00:09:17;;;;;;;17.70;13.15;;;;;;;;;;8240046;28;20046;-87
2022/08/16 00:13:21;;;;;;;17.40;13.13;;;;;;;;;;8236340;28;20051;-87
2022/08/16 00:17:26;;;;;;;16.85;12.77;;;;;;;;;;8233984;28;20061;-87
2022/08/16 00:21:28;;;;;;;18.35;12.60;;;;;;;;;;8234096;28;20069;-87
2022/08/16 00:25:33;;;;;;;18.80;13.65;;;;;;;;;;8238117;28;20058;-87
2022/08/16 00:29:35;;;;;;;16.05;11.98;;;;;;;;;;8234798;28;20118;-87
2022/08/16 00:33:41;;;;;;;16.48;12.73;;;;;;;;;;8237204;28;20066;-88
2022/08/16 00:37:51;;;;;;;20.08;13.63;;;;;;;;;;8235777;28;20067;-87
2022/08/16 00:41:57;;;;;;;20.00;14.05;;;;;;;;;;8232031;28;20134;-88
2022/08/16 00:46:09;;;;;;;18.95;12.70;;;;;;;;;;8226947;28;20055;-87
2022/08/16 00:50:17;;;;;;;18.25;13.70;;;;;;;;;;8238346;28;20531;-87
2022/08/16 00:54:23;;;;;;;19.77;13.68;;;;;;;;;;8243066;28;20070;-88
2022/08/16 00:58:35;;;;;;;28.48;14.60;;;;;;;;;;8244109;28;20090;-88
2022/08/16 01:02:38;;;;;;;20.27;14.02;;;;;;;;;;8227527;28;20058;-87
2022/08/16 01:06:41;;;;;;;19.63;15.23;;;;;;;;;;8234996;28;20051;-89
2022/08/16 01:10:43;;;;;;;20.10;14.38;;;;;;;;;;8227859;28;20137;-87
2022/08/16 01:14:54;;;;;;;22.33;14.52;;;;;;;;;;8235114;28;20062;-89
2022/08/16 01:19:01;;;;;;;23.60;14.27;;;;;;;;;;8242978;28;20046;-89
2022/08/16 01:23:17;;;;;;;17.73;13.98;;;;;;;;;;8247462;28;20098;-88
2022/08/16 01:27:27;;;;;;;18.27;13.55;;;;;;;;;;8247239;28;20498;-88
2022/08/16 01:31:31;;;;;;;17.02;13.07;;;;;;;;;;8234991;28;20059;-88
2022/08/16 01:35:43;;;;;;;18.10;13.15;;;;;;;;;;8239175;28;20142;-88
2022/08/16 01:39:46;;;;;;;;;;;;;;;;;;8244864;28;20054;-88
2022/08/16 01:43:54;;;;;;;16.92;11.88;;;;;;;;;;8242726;28;19925;-89
2022/08/16 01:47:57;;;;;;;16.27;12.68;;;;;;;;;;8250311;28;20078;-88
2022/08/16 01:52:01;;;;;;;19.50;12.25;;;;;;;;;;8247512;28;20475;-88
2022/08/16 01:56:07;;;;;;;18.45;12.23;;;;;;;;;;8239572;28;20054;-89
2022/08/16 02:00:15;;;;;;;15.35;12.60;;;;;;;;;;8238501;28;20058;-89
2022/08/16 02:04:17;;;;;;;16.63;12.52;;;;;;;;;;8241770;28;20086;-88
2022/08/16 02:08:21;;;;;;;16.35;11.75;;;;;;;;;;8241281;28;20064;-88
2022/08/16 02:12:24;;;;;;;17.63;12.85;;;;;;;;;;8241436;28;20126;-89
2022/08/16 02:16:28;;;;;;;13.40;11.35;;;;;;;;;;8243394;28;20423;-89
2022/08/16 02:20:40;;;;;;;22.63;12.10;;;;;;;;;;8252590;28;20047;-89
2022/08/16 02:24:45;;;;;;;15.95;12.82;;;;;;;;;;8248619;28;20051;-89
2022/08/16 02:28:51;;;;;;;14.07;11.25;;;;;;;;;;8188928;28;20522;-89
2022/08/16 02:32:56;;;;;;;15.70;12.45;;;;;;;;;;8238317;28;20063;-88
2022/08/16 02:37:05;;;;;;;18.23;12.30;;;;;;;;;;8241761;28;20621;-89
2022/08/16 02:41:10;;;;;;;16.63;12.45;;;;;;;;;;8246798;28;20043;-89
2022/08/16 02:45:15;;;;;;;14.75;10.68;;;;;;;;;;8247283;28;20047;-89
2022/08/16 02:49:19;;;;;;;15.43;11.25;;;;;;;;;;8241616;28;20426;-89
2022/08/16 02:53:22;;;;;;;15.02;11.05;;;;;;;;;;8237261;28;20078;-89
2022/08/16 02:57:27;;;;;;;18.52;12.57;;;;;;;;;;8223782;28;20051;-89
2022/08/16 03:01:31;;;;;;;21.17;14.35;;;;;;;;;;8235757;28;20058;-89
2022/08/16 03:05:35;;;;;;;16.42;12.13;;;;;;;;;;8246651;28;20129;-89
2022/08/16 03:09:38;;;;;;;14.18;10.10;;;;;;;;;;8240321;28;20059;-89
2022/08/16 03:13:41;;;;;;;15.23;12.07;;;;;;;;;;8242317;28;20057;-89
2022/08/16 03:17:47;;;;;;;16.10;11.68;;;;;;;;;;8244242;28;20050;-89
2022/08/16 03:21:52;;;;;;;17.58;11.65;;;;;;;;;;8242177;28;20082;-90
2022/08/16 03:25:56;;;;;;;15.82;10.25;;;;;;;;;;8240395;28;20035;-89
2022/08/16 03:30:05;;;;;;;17.95;10.45;;;;;;;;;;8234394;28;20117;-90
2022/08/16 03:34:19;;;;;;;13.13;10.50;;;;;;;;;;8241669;28;20046;-89
2022/08/16 03:38:31;;;;;;;14.80;11.57;;;;;;;;;;8246211;28;20052;-90
2022/08/16 03:42:34;;;;;;;20.40;13.85;;;;;;;;;;8252479;28;20502;-90
2022/08/16 03:46:39;;;;;;;23.27;13.60;;;;;;;;;;8236494;28;20059;-90
2022/08/16 03:50:43;;;;;;;22.92;14.23;;;;;;;;;;8239030;28;20063;-89
2022/08/16 03:54:49;;;;;;;21.42;14.90;;;;;;;;;;8244393;28;20066;-90
2022/08/16 03:58:57;;;;;;;23.58;15.00;;;;;;;;;;8234461;28;20054;-89
2022/08/16 04:03:11;;;;;;;19.23;13.57;;;;;;;;;;8245402;28;20508;-89
2022/08/16 04:07:14;;;;;;;17.95;11.65;;;;;;;;;;8242123;28;20091;-89
2022/08/16 04:11:19;;;;;;;18.17;12.18;;;;;;;;;;8247008;28;20042;-90
2022/08/16 04:15:22;;;;;;;17.95;11.68;;;;;;;;;;8249683;28;20106;-89
2022/08/16 04:19:27;;;;;;;18.15;13.30;;;;;;;;;;8233336;28;20059;-89
2022/08/16 04:23:30;;;;;;;19.83;13.95;;;;;;;;;;8241487;28;20078;-90
2022/08/16 04:27:35;;;;;;;18.15;13.18;;;;;;;;;;8234561;28;20056;-89
2022/08/16 04:31:38;;;;;;;21.92;15.48;;;;;;;;;;8233523;28;20136;-90
2022/08/16 04:35:40;;;;;;;26.02;16.40;;;;;;;;;;8236645;28;20066;-90
2022/08/16 04:39:46;;;;;;;23.08;14.80;;;;;;;;;;8231791;28;20059;-90
2022/08/16 04:43:57;;;;;;;18.95;14.38;;;;;;;;;;8217612;28;20055;-89
2022/08/16 04:48:02;;;;;;;22.20;14.45;;;;;;;;;;8215240;28;20078;-91
2022/08/16 04:52:16;;;;;;;27.75;16.63;;;;;;;;;;8213610;28;20047;-92
2022/08/16 04:56:19;;;;;;;24.73;16.67;;;;;;;;;;8209975;28;20055;-92
2022/08/16 05:00:32;;;;;;;29.00;18.35;;;;;;;;;;8207060;28;20152;-90
2022/08/16 05:04:38;;;;;;;25.45;17.05;;;;;;;;;;8205859;28;20430;-90
2022/08/16 05:08:41;;;;;;;25.45;17.92;;;;;;;;;;8223368;28;20062;-90
2022/08/16 05:12:49;;;;;;;25.08;17.63;;;;;;;;;;8221094;28;20062;-92
2022/08/16 05:17:00;;;;;;;25.45;15.85;;;;;;;;;;8069859;29;20061;-90
2022/08/16 05:21:10;;;;;;;24.08;15.55;;;;;;;;;;8094503;29;20076;-90
2022/08/16 05:25:14;;;;;;;21.95;16.98;;;;;;;;;;8058188;29;20470;-91
2022/08/16 05:29:17;;;;;;;26.38;17.95;;;;;;;;;;8075922;29;20137;-90
2022/08/16 05:33:22;;;;;;;20.40;16.38;;;;;;;;;;8083915;29;20061;-89
2022/08/16 05:37:25;;;;;;;19.52;15.38;;;;;;;;;;8111036;29;20425;-90
2022/08/16 05:41:47;;;;;;;24.70;16.00;;;;;;;;;;8101622;29;20049;-92
2022/08/16 05:45:51;;;;;;;20.98;16.63;;;;;;;;;;8089160;29;20068;-96
2022/08/16 05:49:55;;;;;;;33.83;23.48;;;;;;;;;;8084336;29;20446;-95
2022/08/16 05:53:58;;;;;;;21.65;17.33;;;;;;;;;;8158321;28;20055;-91
2022/08/16 05:58:00;;;;;;;25.20;18.17;;;;;;;;;;8236797;28;20047;-96
2022/08/16 06:02:06;;;;;;;24.90;18.67;;;;;;;;;;8239772;28;20082;-89
2022/08/16 06:06:11;;;;;;;20.10;14.95;;;;;;;;;;8235854;28;20097;-89
2022/08/16 06:10:15;;;;;;;22.20;15.50;;;;;;;;;;8233473;28;20055;-88
2022/08/16 06:14:18;;;;;;;24.95;15.32;;;;;;;;;;8238890;28;20062;-96
2022/08/16 06:18:21;;;;;;;22.23;15.48;;;;;;;;;;8219432;28;20056;-95
2022/08/16 06:22:24;;;;;;;20.40;15.23;;;;;;;;;;8228660;28;20073;-89
2022/08/16 06:26:27;;;;;;;19.70;14.65;;;;;;;;;;8234665;28;20110;-88
2022/08/16 06:35:23;;;;;;;20.00;14.07;;;;;;;;;;8218532;28;20514;-89
2022/08/16 06:39:44;;;;;;;17.25;14.65;;;;;;;;;;8215835;28;20083;-90
2022/08/16 06:43:50;;;;;;;;;;;;;;;;;;8208983;28;20070;-90
2022/08/16 06:47:58;;;;;;;16.63;13.73;;;;;;;;;;8203903;28;19930;-90
2022/08/16 06:52:09;;;;;;;22.15;13.85;;;;;;;;;;8197193;28;20495;-89
2022/08/16 06:56:45;;;;;;;21.05;13.90;;;;;;;;;;8229254;28;20184;-89
2022/08/16 07:11:50;;;;;;;21.70;14.05;;;;;;;;;;8184297;29;20058;-89
2022/08/16 07:16:32;;;;;;;19.08;12.95;;;;;;;;;;8122120;29;20120;-88
2022/08/16 07:25:45;;;;;;;23.63;13.52;;;;;;;;;;7947562;29;20067;-88
2022/08/16 07:29:49;;;;;;;15.75;12.43;;;;;;;;;;7938836;29;20097;-87
2022/08/16 07:33:56;;;;;;;22.52;12.95;;;;;;;;;;7899749;29;20055;-89
2022/08/16 07:38:20;;;;;;;16.88;12.90;;;;;;;;;;7941216;29;20460;-89
2022/08/16 07:42:27;;;;;;;16.02;12.38;;;;;;;;;;7956294;29;20507;-89
2022/08/16 07:46:34;;;;;;;17.75;12.13;;;;;;;;;;7974149;29;20161;-87
2022/08/16 07:50:53;;;;;;;17.23;12.82;;;;;;;;;;8096597;29;20118;-89
2022/08/16 07:55:01;;;;;;;14.05;12.13;;;;;;;;;;8104220;29;20042;-88
2022/08/16 07:59:08;;;;;;;16.10;13.30;;;;;;;;;;8210464;29;20527;-88
2022/08/16 08:03:12;;;;;;;19.40;12.75;;;;;;;;;;8212694;29;20047;-88
2022/08/16 08:07:59;;;;;;;15.77;12.73;;;;;;;;;;8211498;29;20059;-88
2022/08/16 08:12:10;;;;;;;;;;;;;;;;;;8143391;29;20076;-88
2022/08/16 08:25:09;;;;;;;17.27;12.07;;;;;;;;;;8047382;29;20064;-88
2022/08/16 08:39:25;;;;;;;16.35;12.15;;;;;;;;;;7939996;29;20063;-88
2022/08/16 08:43:33;;;;;;;13.10;11.15;;;;;;;;;;7993234;29;20037;-89
2022/08/16 08:47:39;;;;;;;14.38;11.15;;;;;;;;;;7969809;29;20063;-88
2022/08/16 08:51:47;;;;;;;15.63;10.60;;;;;;;;;;7969736;29;20511;-89
2022/08/16 08:55:51;;;;;;;14.02;8.98;;;;;;;;;;7983594;29;20102;-89
2022/08/16 08:59:56;;;;;;;11.55;9.02;;;;;;;;;;7977549;29;20142;-88
2022/08/16 09:04:02;;;;;;;15.80;9.45;;;;;;;;;;8040203;29;20053;-88
2022/08/16 09:08:31;;;;;;;15.75;9.55;;;;;;;;;;8099843;29;20812;-89
2022/08/16 09:12:49;;;;;;;18.67;10.52;;;;;;;;;;8098392;29;20045;-89
2022/08/16 09:17:06;;;;;;;11.13;8.38;;;;;;;;;;8157051;29;20094;-88
2022/08/16 09:21:14;;;;;;;12.35;8.10;;;;;;;;;;8198294;29;20122;-87
2022/08/16 09:25:21;;;;;;;13.00;8.05;;;;;;;;;;8212731;28;20057;-89
2022/08/16 09:29:52;;;;;;;15.30;8.23;;;;;;;;;;8233682;28;20058;-90
2022/08/16 09:34:39;;;;;;;15.32;8.20;;;;;;;;;;8227262;28;20035;-89
2022/08/16 09:38:44;;;;;;;17.42;8.52;;;;;;;;;;8123256;29;20084;-89
2022/08/16 09:42:59;;;;;;;16.10;8.82;;;;;;;;;;8120351;29;20406;-90
2022/08/16 09:47:03;;;;;;;13.20;7.20;;;;;;;;;;8114366;29;20219;-89
2022/08/16 09:51:29;;;;;;;9.77;6.63;;;;;;;;;;8080324;29;20041;-89
2022/08/16 09:55:42;;;;;;;9.85;7.18;;;;;;;;;;8124867;29;20060;-89
2022/08/16 09:59:47;;;;;;;11.18;6.97;;;;;;;;;;8113988;29;20061;-88
2022/08/16 10:03:52;;;;;;;13.73;7.72;;;;;;;;;;8107773;29;20064;-88
2022/08/16 10:08:00;;;;;;;9.55;6.97;;;;;;;;;;8106012;29;20139;-88
2022/08/16 10:16:37;;;;;;;12.70;7.82;;;;;;;;;;8216440;28;20058;-89
2022/08/16 10:20:46;;;;;;;12.82;7.10;;;;;;;;;;8230304;28;20044;-89
2022/08/16 10:25:03;;;;;;;14.05;7.75;;;;;;;;;;8208015;28;20419;-88
2022/08/16 10:29:12;;;;;;;13.00;7.50;;;;;;;;;;8222535;28;20074;-89
2022/08/16 10:37:50;;;;;;;12.63;7.40;;;;;;;;;;8225103;28;20058;-89
2022/08/16 10:42:02;;;;;;;12.07;7.43;;;;;;;;;;8227705;28;20059;-89
2022/08/16 10:46:12;;;;;;;11.63;7.40;;;;;;;;;;8207448;28;20613;-88
2022/08/16 10:50:22;;;;;;;12.98;7.82;;;;;;;;;;8205163;28;20058;-87
2022/08/16 10:54:27;;;;;;;14.75;7.55;;;;;;;;;;8220210;28;20079;-89
2022/08/16 11:03:17;;;;;;;12.98;7.65;;;;;;;;;;8125274;29;20082;-87
2022/08/16 11:07:22;;;;;;;10.68;7.70;;;;;;;;;;8123989;29;20535;-87
2022/08/16 11:11:32;;;;;;;10.23;7.13;;;;;;;;;;8126387;29;20063;-87
2022/08/16 11:15:36;;;;;;;;;;;;;;;;;;8128945;29;20075;-86
2022/08/16 11:19:42;;;;;;;13.48;8.18;;;;;;;;;;8150538;29;19926;-88
2022/08/16 11:23:52;;;;;;;15.05;7.05;;;;;;;;;;8135533;29;20055;-89
2022/08/16 11:28:07;;;;;;;13.73;7.70;;;;;;;;;;8179946;28;20051;-87
2022/08/16 11:32:17;;;;;;;14.73;7.72;;;;;;;;;;8213868;28;20058;-87
2022/08/16 11:36:28;;;;;;;14.70;8.52;;;;;;;;;;8183759;28;20398;-87
2022/08/16 11:40:39;;;;;;;15.00;8.20;;;;;;;;;;8181754;28;20102;-88
2022/08/16 11:44:45;;;;;;;11.35;8.73;;;;;;;;;;8187769;28;20147;-88
2022/08/16 11:48:50;;;;;;;13.18;8.10;;;;;;;;;;8198985;28;20455;-88
2022/08/16 11:53:04;;;;;;;13.85;8.00;;;;;;;;;;8180444;28;20082;-87
2022/08/16 11:57:12;;;;;;;13.63;8.30;;;;;;;;;;8212995;28;20558;-89
2022/08/16 12:01:16;;;;;;;12.18;8.77;;;;;;;;;;8199509;28;20137;-87
2022/08/16 12:05:23;;;;;;;13.30;8.55;;;;;;;;;;8216754;28;20078;-89
2022/08/16 12:09:31;;;;;;;15.00;8.65;;;;;;;;;;8194758;28;20449;-87
2022/08/16 12:13:38;;;;;;;13.05;7.55;;;;;;;;;;8217778;28;20069;-88
2022/08/16 12:17:50;;;;;;;14.52;7.50;;;;;;;;;;8226886;28;20055;-90
2022/08/16 12:22:06;;;;;;;17.05;7.60;;;;;;;;;;8240576;28;20062;-88
2022/08/16 12:26:10;;;;;;;13.63;7.53;;;;;;;;;;8223927;28;20898;-87
2022/08/16 12:30:23;;;;;;;13.98;7.55;;;;;;;;;;8224628;28;20063;-90
2022/08/16 12:34:29;;;;;;;13.93;6.80;;;;;;;;;;8232648;28;20095;-89
2022/08/16 12:38:37;;;;;;;10.25;6.80;;;;;;;;;;8226660;28;20070;-88
2022/08/16 12:42:53;;;;;;;12.07;6.60;;;;;;;;;;8245172;28;20070;-88
2022/08/16 12:51:25;;;;;;;12.40;6.30;;;;;;;;;;8222937;28;20062;-88
2022/08/16 12:55:32;;;;;;;9.05;5.60;;;;;;;;;;8234929;28;20054;-86
2022/08/16 12:59:36;;;;;;;9.13;5.90;;;;;;;;;;8247383;28;20090;-87
2022/08/16 13:03:42;;;;;;;14.80;6.05;;;;;;;;;;8245070;28;20137;-86
2022/08/16 13:07:52;;;;;;;;;;;;;;;;;;8250677;28;20051;-87
2022/08/16 13:12:18;;;;;;;10.73;5.95;;;;;;;;;;8255004;28;20025;-87
2022/08/16 13:16:33;;;;;;;12.23;6.53;;;;;;;;;;8252030;28;20035;-87
2022/08/16 13:20:37;;;;;;;14.68;7.63;;;;;;;;;;8248235;28;20058;-87
2022/08/16 13:24:42;;;;;;;12.55;7.57;;;;;;;;;;8229989;28;20052;-88
2022/08/16 13:28:51;;;;;;;9.57;7.20;;;;;;;;;;8230142;28;20072;-86
2022/08/16 13:32:55;;;;;;;10.63;7.25;;;;;;;;;;8214328;28;20070;-87
2022/08/16 13:37:04;;;;;;;12.15;7.47;;;;;;;;;;8224336;28;20055;-87
2022/08/16 13:41:13;;;;;;;16.05;7.80;;;;;;;;;;8224242;28;20066;-87
2022/08/16 13:45:16;;;;;;;15.57;8.13;;;;;;;;;;8224543;28;20138;-88
2022/08/16 13:49:25;;;;;;;9.93;7.70;;;;;;;;;;8206655;28;20055;-88
2022/08/16 13:53:39;;;;;;;14.10;7.97;;;;;;;;;;8216958;28;20063;-90
2022/08/16 13:57:57;;;;;;;12.75;7.95;;;;;;;;;;8231883;28;20074;-89
2022/08/16 14:07:04;;;;;;;16.23;8.60;;;;;;;;;;8235591;28;20059;-88
2022/08/16 14:16:37;;;;;;;12.27;7.32;;;;;;;;;;8190597;29;20052;-89
2022/08/16 14:21:28;;;;;;;13.55;7.60;;;;;;;;;;8129519;29;20091;-90
2022/08/16 14:25:44;;;;;;;12.30;7.47;;;;;;;;;;8144029;29;20120;-88
2022/08/16 14:30:20;;;;;;;13.50;7.93;;;;;;;;;;8163942;29;20079;-87
2022/08/16 14:35:02;;;;;;;12.40;7.60;;;;;;;;;;7975315;29;20066;-90
2022/08/16 14:49:50;;;;;;;12.07;7.70;;;;;;;;;;7911151;30;20064;-88
2022/08/16 14:54:01;;;;;;;15.68;7.70;;;;;;;;;;7902923;30;20064;-88
2022/08/16 14:58:07;;;;;;;15.95;8.00;;;;;;;;;;7895035;30;20694;-88
2022/08/16 15:02:24;;;;;;;14.52;7.20;;;;;;;;;;7888650;30;20205;-89
2022/08/16 15:06:52;;;;;;;12.60;6.57;;;;;;;;;;7916295;29;20062;-89
2022/08/16 15:11:04;;;;;;;11.35;7.07;;;;;;;;;;7950350;29;20063;-89
2022/08/16 15:15:24;;;;;;;13.70;6.57;;;;;;;;;;7919133;29;20059;-87
2022/08/16 15:19:35;;;;;;;9.95;6.40;;;;;;;;;;7928529;29;20058;-87
2022/08/16 15:28:36;;;;;;;14.40;7.32;;;;;;;;;;7910851;29;20146;-89
2022/08/16 15:32:45;;;;;;;11.05;7.25;;;;;;;;;;8005274;29;20536;-89
2022/08/16 15:42:03;;;;;;;11.23;7.80;;;;;;;;;;7987481;29;20103;-88
2022/08/16 15:46:25;;;;;;;12.00;8.32;;;;;;;;;;8000701;29;20062;-89
2022/08/16 15:50:29;;;;;;;16.80;9.13;;;;;;;;;;7987635;29;20062;-87
2022/08/16 15:55:21;;;;;;;13.55;8.57;;;;;;;;;;8035427;29;20069;-88
2022/08/16 15:59:51;;;;;;;15.32;8.00;;;;;;;;;;8057148;29;20057;-86
2022/08/16 16:04:06;;;;;;;15.93;7.35;;;;;;;;;;8059314;29;20161;-87
2022/08/16 16:22:42;;;;;;;11.88;7.00;;;;;;;;;;8059618;29;20217;-88
2022/08/16 16:26:47;;;;;;;14.98;7.18;;;;;;;;;;8078400;29;20431;-86
2022/08/16 16:31:03;;;;;;;11.55;7.35;;;;;;;;;;8079778;29;20117;-87
2022/08/16 16:35:37;;;;;;;13.52;7.65;;;;;;;;;;8074239;29;20133;-88
2022/08/16 16:44:22;;;;;;;12.25;7.28;;;;;;;;;;8083353;29;20061;-86
2022/08/16 16:59:03;;;;;;;11.48;7.57;;;;;;;;;;8030343;29;20478;-88
2022/08/16 17:08:09;;;;;;;10.98;7.43;;;;;;;;;;7943284;29;20420;-88
2022/08/16 17:12:12;;;;;;;11.65;7.57;;;;;;;;;;7951861;29;20066;-87
2022/08/16 17:16:16;;;;;;;11.55;7.20;;;;;;;;;;7955733;29;20062;-87
2022/08/16 17:20:20;;;;;;;13.55;8.20;;;;;;;;;;7961005;29;20066;-87
2022/08/16 17:24:22;;;;;;;12.55;7.85;;;;;;;;;;7959802;29;20062;-87
2022/08/16 17:28:26;;;;;;;12.23;8.30;;;;;;;;;;7980869;29;20820;-88
2022/08/16 17:32:30;;;;;;;13.23;8.75;;;;;;;;;;7948892;29;20074;-86
2022/08/16 17:40:55;;;;;;;16.98;9.35;;;;;;;;;;7956687;29;20136;-86
2022/08/16 17:44:59;;;;;;;12.95;9.25;;;;;;;;;;8087741;29;20261;-86
2022/08/16 17:49:08;;;;;;;11.80;8.07;;;;;;;;;;8128991;29;20144;-86
2022/08/16 17:53:14;;;;;;;16.67;9.18;;;;;;;;;;8133488;29;20056;-85
2022/08/16 17:57:18;;;;;;;10.75;8.60;;;;;;;;;;8130651;29;20096;-86
2022/08/16 18:01:32;;;;;;;15.40;10.30;;;;;;;;;;8139107;29;20214;-86
2022/08/16 18:05:43;;;;;;;;;;;;;;;;;;8147951;29;20143;-86
2022/08/16 18:09:53;;;;;;;99.75;42.38;;;;;;;;;;8156920;28;19989;-86
2022/08/16 18:14:03;;;;;;;42.35;21.08;;;;;;;;;;8203702;28;20065;-86
2022/08/16 18:18:21;;;;;;;39.28;18.38;;;;;;;;;;8213305;28;20079;-87
2022/08/16 18:22:32;;;;;;;25.35;14.63;;;;;;;;;;8228742;28;20141;-86
2022/08/16 18:26:35;;;;;;;;;;;;;;;;;;8233626;28;20102;-85
2022/08/16 18:30:43;;;;;;;16.20;10.32;;;;;;;;;;8237118;28;19928;-85
2022/08/16 18:34:47;;;;;;;23.20;14.10;;;;;;;;;;8238777;28;20087;-86
2022/08/16 18:38:51;;;;;;;26.65;16.35;;;;;;;;;;8246083;28;20062;-85
2022/08/16 18:43:19;;;;;;;18.48;11.40;;;;;;;;;;8250720;28;20118;-85
2022/08/16 18:47:25;;;;;;;17.42;10.32;;;;;;;;;;8220779;28;20047;-86
2022/08/16 18:51:30;;;;;;;14.20;9.43;;;;;;;;;;8238521;28;20057;-86
2022/08/16 18:55:38;;;;;;;16.77;10.93;;;;;;;;;;8205777;28;20951;-87
2022/08/16 18:59:42;;;;;;;15.52;10.95;;;;;;;;;;8224443;28;20058;-86
2022/08/16 19:03:45;;;;;;;17.92;9.75;;;;;;;;;;8202688;28;20087;-87
2022/08/16 19:07:47;;;;;;;19.02;10.00;;;;;;;;;;8216482;28;20053;-88
2022/08/16 19:11:54;;;;;;;16.38;10.65;;;;;;;;;;8218250;28;20054;-87
2022/08/16 19:15:59;;;;;;;14.38;10.32;;;;;;;;;;8198919;28;20130;-86
2022/08/16 19:20:09;;;;;;;19.27;11.23;;;;;;;;;;8196352;28;20485;-88
2022/08/16 19:24:18;;;;;;;16.52;10.38;;;;;;;;;;8204616;28;20415;-86
2022/08/16 19:28:27;;;;;;;15.45;10.60;;;;;;;;;;8229873;28;20055;-91
2022/08/16 19:32:29;;;;;;;14.77;10.65;;;;;;;;;;8241622;28;20078;-86
2022/08/16 19:36:34;;;;;;;14.75;10.90;;;;;;;;;;8241272;28;20061;-87
2022/08/16 19:40:41;;;;;;;16.70;11.88;;;;;;;;;;8227234;28;20491;-85
2022/08/16 19:44:52;;;;;;;18.65;12.07;;;;;;;;;;8238231;28;20056;-86
2022/08/16 19:48:56;;;;;;;15.68;11.95;;;;;;;;;;8214584;28;20055;-92
2022/08/16 19:53:02;;;;;;;16.27;10.68;;;;;;;;;;8223087;28;20447;-85
2022/08/16 19:57:05;;;;;;;16.52;10.55;;;;;;;;;;8235760;28;20061;-87
2022/08/16 20:01:11;;;;;;;15.45;10.48;;;;;;;;;;8235625;28;20488;-86
2022/08/16 20:05:18;;;;;;;18.75;12.15;;;;;;;;;;8231381;28;20078;-86
2022/08/16 20:09:22;;;;;;;17.23;12.23;;;;;;;;;;8225725;28;20059;-95
2022/08/16 20:13:24;;;;;;;16.33;10.82;;;;;;;;;;8226543;28;20130;-96
2022/08/16 20:17:31;;;;;;;14.40;11.27;;;;;;;;;;8228494;28;20105;-86
2022/08/16 20:21:36;;;;;;;30.30;17.65;;;;;;;;;;8233327;28;20059;-86
2022/08/16 20:25:42;;;;;;;16.88;11.95;;;;;;;;;;8227595;28;20079;-86
2022/08/16 20:29:52;;;;;;;14.30;10.77;;;;;;;;;;8237479;28;20079;-88
2022/08/16 20:34:00;;;;;;;16.33;11.25;;;;;;;;;;8237554;28;20055;-87
2022/08/16 20:38:03;;;;;;;15.82;11.23;;;;;;;;;;8230885;28;20070;-86
2022/08/16 20:42:07;;;;;;;15.65;11.07;;;;;;;;;;8223924;28;20051;-86
2022/08/16 20:46:09;;;;;;;14.02;10.02;;;;;;;;;;8235457;28;20074;-96
2022/08/16 20:50:16;;;;;;;13.98;9.90;;;;;;;;;;8221327;28;20070;-92
2022/08/16 20:54:22;;;;;;;16.75;10.65;;;;;;;;;;8232618;28;20050;-88
2022/08/16 20:58:27;;;;;;;15.88;11.10;;;;;;;;;;8228686;28;20048;-87
2022/08/16 21:02:33;;;;;;;15.98;11.13;;;;;;;;;;8228568;28;20106;-86
2022/08/16 21:06:39;;;;;;;13.80;10.85;;;;;;;;;;8240587;28;20047;-96
2022/08/16 21:10:44;;;;;;;14.13;10.50;;;;;;;;;;8218976;28;20070;-86
2022/08/16 21:14:50;;;;;;;13.60;9.60;;;;;;;;;;8230602;28;20059;-94
2022/08/16 21:18:53;;;;;;;18.30;11.25;;;;;;;;;;8235079;28;20055;-86
2022/08/16 21:23:02;;;;;;;17.85;11.50;;;;;;;;;;8225743;28;20059;-92
2022/08/16 21:27:05;;;;;;;14.40;11.07;;;;;;;;;;8230851;28;20055;-96
2022/08/16 21:31:07;;;;;;;13.48;10.88;;;;;;;;;;8243679;28;20563;-86
2022/08/16 21:35:13;;;;;;;14.75;11.07;;;;;;;;;;8223454;28;20059;-96
2022/08/16 21:39:24;;;;;;;14.32;10.57;;;;;;;;;;8229381;28;20411;-87
2022/08/16 21:43:30;;;;;;;;;;;;;;;;;;8235682;28;20051;-89
2022/08/16 21:47:34;;;;;;;11.73;9.52;;;;;;;;;;8227458;28;19929;-86
2022/08/16 21:51:36;;;;;;;14.65;9.73;;;;;;;;;;8239145;28;20059;-94
2022/08/16 21:55:46;;;;;;;13.07;9.82;;;;;;;;;;8244030;28;20047;-91
2022/08/16 21:59:50;;;;;;;16.73;10.30;;;;;;;;;;8227898;28;20066;-86
2022/08/16 22:03:53;;;;;;;14.80;10.23;;;;;;;;;;8230204;28;20055;-94
2022/08/16 22:07:56;;;;;;;15.63;10.32;;;;;;;;;;8237761;28;20055;-95
2022/08/16 22:12:00;;;;;;;14.48;10.73;;;;;;;;;;8233312;28;20143;-96
2022/08/16 22:16:03;;;;;;;16.55;10.48;;;;;;;;;;8239583;28;20108;-93
2022/08/16 22:20:11;;;;;;;14.68;10.27;;;;;;;;;;8245577;28;20054;-95
2022/08/16 22:24:14;;;;;;;13.88;10.43;;;;;;;;;;8242479;28;20066;-96
2022/08/16 22:28:23;;;;;;;15.38;10.23;;;;;;;;;;8248665;28;20054;-86
2022/08/16 22:32:29;;;;;;;13.50;10.38;;;;;;;;;;8236267;28;20058;-95
2022/08/16 22:36:33;;;;;;;14.25;10.13;;;;;;;;;;8230243;28;20499;-91
2022/08/16 22:40:35;;;;;;;14.43;9.75;;;;;;;;;;8224549;28;20058;-87
2022/08/16 22:44:41;;;;;;;16.98;10.88;;;;;;;;;;8227775;28;20055;-88
2022/08/16 22:48:44;;;;;;;17.02;12.20;;;;;;;;;;8228993;28;20056;-91
2022/08/16 22:52:50;;;;;;;15.00;10.90;;;;;;;;;;8237095;28;20051;-91
2022/08/16 22:56:53;;;;;;;15.50;11.32;;;;;;;;;;8229821;28;20054;-94
2022/08/16 23:00:57;;;;;;;17.77;12.13;;;;;;;;;;8220245;28;20134;-94
2022/08/16 23:05:02;;;;;;;13.40;10.60;;;;;;;;;;8219123;28;20054;-89
2022/08/16 23:09:04;;;;;;;14.15;10.30;;;;;;;;;;8222542;28;20055;-92
2022/08/16 23:13:07;;;;;;;16.52;11.07;;;;;;;;;;8216405;28;20051;-96
2022/08/16 23:17:11;;;;;;;21.33;11.55;;;;;;;;;;8214086;28;20059;-96
2022/08/16 23:21:14;;;;;;;15.25;11.57;;;;;;;;;;8230751;28;20051;-96
2022/08/16 23:25:20;;;;;;;15.20;10.20;;;;;;;;;;8244262;28;20043;-92
2022/08/16 23:29:23;;;;;;;16.45;10.40;;;;;;;;;;8236482;28;20059;-90
2022/08/16 23:33:28;;;;;;;15.57;10.20;;;;;;;;;;8223054;28;20518;-93
2022/08/16 23:37:33;;;;;;;13.88;10.43;;;;;;;;;;8223545;28;20058;-87
2022/08/16 23:41:36;;;;;;;12.30;9.15;;;;;;;;;;8238540;28;20055;-96
2022/08/16 23:45:41;;;;;;;13.68;10.13;;;;;;;;;;8231020;28;20110;-87
2022/08/16 23:49:45;;;;;;;12.13;9.20;;;;;;;;;;8241479;28;20062;-87
2022/08/16 23:53:48;;;;;;;12.55;8.73;;;;;;;;;;8241176;28;20051;-96
2022/08/16 23:57:52;;;;;;;15.35;10.82;;;;;;;;;;8232526;28;20491;-96
